createdAt,value
2023-03-16T01:29:43.931Z,98809.27
2023-03-16T01:32:11.802Z,98808.94
2023-03-16T01:34:38.780Z,98807.59
2023-03-16T01:37:06.179Z,98808.98
2023-03-16T01:39:49.977Z,98810.77
2023-03-16T01:42:17.256Z,98809.23
2023-03-16T01:44:55.756Z,98810.20
2023-03-16T01:47:27.084Z,98813.23
2023-03-16T01:49:55.533Z,98817.73
2023-03-16T01:52:32.846Z,98816.71
2023-03-16T01:55:02.748Z,98818.23
2023-03-16T01:57:36.484Z,98825.56
2023-03-16T02:00:10.048Z,98829.55
2023-03-16T02:02:51.000Z,98833.98
2023-03-16T02:05:43.885Z,98831.88
2023-03-16T02:08:14.608Z,98823.18
2023-03-16T02:10:41.891Z,98825.39
2023-03-16T02:13:12.686Z,98823.21
2023-03-16T02:15:41.437Z,98829.80
2023-03-16T02:18:08.302Z,98835.16
2023-03-16T02:20:49.536Z,98844.27
2023-03-16T02:23:18.289Z,98849.90
2023-03-16T02:26:12.207Z,98852.74
2023-03-16T02:28:52.176Z,98856.30
2023-03-16T02:31:22.146Z,98861.39
2023-03-16T02:34:09.018Z,98865.55
2023-03-16T02:36:36.528Z,98865.09
2023-03-16T02:39:05.266Z,98862.44
2023-03-16T02:41:38.865Z,98856.02
2023-03-16T02:44:18.931Z,98856.48
2023-03-16T02:46:46.384Z,98851.30
2023-03-16T02:49:24.899Z,98843.27
2023-03-16T02:51:52.503Z,98842.23
2023-03-16T02:54:20.006Z,98837.90
2023-03-16T02:56:47.359Z,98840.25
2023-03-16T02:59:14.633Z,98838.73
2023-03-16T03:01:41.980Z,98842.36
2023-03-16T03:04:10.204Z,98839.87
2023-03-16T03:06:37.330Z,98840.05
2023-03-16T03:09:04.852Z,98842.56
2023-03-16T03:11:31.975Z,98844.52
2023-03-16T03:13:59.616Z,98842.42
2023-03-16T03:16:27.760Z,98841.63
2023-03-16T03:18:55.865Z,98846.64
2023-03-16T03:21:23.711Z,98850.08
2023-03-16T03:23:51.043Z,98855.44
2023-03-16T03:26:17.894Z,98857.13
2023-03-16T03:28:46.383Z,98847.86
2023-03-16T03:31:17.546Z,98844.73
2023-03-16T03:33:44.644Z,98844.46
2023-03-16T03:36:12.419Z,98843.02
2023-03-16T03:38:39.717Z,98840.91
2023-03-16T03:41:07.459Z,98849.89
2023-03-16T03:43:36.244Z,98854.58
2023-03-16T03:46:03.485Z,98861.04
2023-03-16T03:48:33.316Z,98860.42
2023-03-16T03:51:00.597Z,98859.58
2023-03-16T03:53:46.669Z,98864.91
2023-03-16T03:56:48.942Z,98867.64
2023-03-16T03:59:16.492Z,98864.38
2023-03-16T04:02:06.362Z,98856.83
2023-03-16T04:04:51.059Z,98854.64
2023-03-16T04:07:17.923Z,98864.09
2023-03-16T04:09:45.012Z,98865.64
2023-03-16T04:12:20.755Z,98865.55
2023-03-16T04:14:48.877Z,98864.77
2023-03-16T04:17:16.849Z,98868.88
2023-03-16T04:19:44.745Z,98867.56
2023-03-16T04:22:13.765Z,98867.98
2023-03-16T04:24:42.643Z,98863.42
2023-03-16T04:27:11.545Z,98862.77
2023-03-16T04:29:38.653Z,98865.50
2023-03-16T04:32:06.570Z,98869.67
2023-03-16T04:34:34.154Z,98872.83
2023-03-16T04:37:03.144Z,98878.44
2023-03-16T04:39:31.783Z,98884.77
2023-03-16T04:41:59.172Z,98888.02
2023-03-16T04:44:27.206Z,98884.73
2023-03-16T04:46:54.113Z,98889.63
2023-03-16T04:49:21.866Z,98891.16
2023-03-16T04:51:49.746Z,98889.78
2023-03-16T04:54:19.075Z,98894.77
2023-03-16T04:56:46.528Z,98900.62
2023-03-16T04:59:39.345Z,98898.96
2023-03-16T05:02:14.445Z,98901.86
2023-03-16T05:04:43.235Z,98907.30
2023-03-16T05:07:14.781Z,98908.25
2023-03-16T05:09:46.872Z,98912.46
2023-03-16T05:12:13.885Z,98913.14
2023-03-16T05:14:46.612Z,98915.25
2023-03-16T05:17:21.756Z,98921.05
2023-03-16T05:19:49.590Z,98926.89
2023-03-16T05:22:20.234Z,98934.20
2023-03-16T05:25:14.485Z,98940.77
2023-03-16T05:27:48.162Z,98946.33
2023-03-16T05:30:20.090Z,98957.67
2023-03-16T05:32:47.904Z,98965.42
2023-03-16T05:35:24.178Z,98969.71
2023-03-16T05:37:52.351Z,98970.79
2023-03-16T05:40:22.466Z,98973.79
2023-03-16T05:42:56.762Z,98971.89
2023-03-16T05:45:27.754Z,98970.23
2023-03-16T05:48:08.789Z,98968.17
2023-03-16T05:50:39.030Z,98971.13
2023-03-16T05:53:06.207Z,98968.06
2023-03-16T05:55:33.439Z,98964.17
2023-03-16T05:58:02.563Z,98965.92
2023-03-16T06:00:32.484Z,98966.79
2023-03-16T06:03:07.889Z,98965.25
2023-03-16T06:05:38.508Z,98965.73
2023-03-16T06:08:05.749Z,98969.26
2023-03-16T06:10:35.862Z,98964.36
2023-03-16T06:13:03.419Z,98966.33
2023-03-16T06:15:32.994Z,98972.52
2023-03-16T06:18:08.303Z,98982.18
2023-03-16T06:20:39.617Z,98984.11
2023-03-16T06:23:08.202Z,98987.20
2023-03-16T06:25:35.282Z,98990.08
2023-03-16T06:28:04.161Z,98995.63
2023-03-16T06:30:32.841Z,98998.18
2023-03-16T06:33:01.674Z,98999.06
2023-03-16T06:35:28.684Z,99004.05
2023-03-16T06:38:16.747Z,99010.05
2023-03-16T06:41:10.625Z,99017.04
2023-03-16T06:43:39.549Z,99011.52
2023-03-16T06:46:07.466Z,99013.45
2023-03-16T06:48:38.358Z,99014.08
2023-03-16T06:51:07.225Z,99015.14
2023-03-16T06:53:34.813Z,99013.19
2023-03-16T06:56:05.016Z,99014.44
2023-03-16T06:58:35.057Z,99021.92
2023-03-16T07:01:05.433Z,99027.99
2023-03-16T07:03:33.321Z,99027.45
2023-03-16T07:06:09.113Z,99031.73
2023-03-16T07:08:37.690Z,99029.07
2023-03-16T07:11:05.108Z,99029.73
2023-03-16T07:13:32.137Z,99032.02
2023-03-16T07:15:59.074Z,99032.70
2023-03-16T07:18:29.754Z,99031.86
2023-03-16T07:20:56.982Z,99037.79
2023-03-16T07:23:26.264Z,99043.20
2023-03-16T07:25:57.712Z,99048.27
2023-03-16T07:28:27.485Z,99047.80
2023-03-16T07:31:03.316Z,99047.27
2023-03-16T07:33:36.149Z,99049.66
2023-03-16T07:36:05.301Z,99054.66
2023-03-16T07:38:32.908Z,99057.13
2023-03-16T07:41:05.688Z,99059.56
2023-03-16T07:43:34.214Z,99061.92
2023-03-16T07:46:01.323Z,99060.40
2023-03-16T07:48:29.210Z,99063.94
2023-03-16T07:50:59.969Z,99064.27
2023-03-16T07:53:33.224Z,99062.50
2023-03-16T07:56:29.700Z,99067.51
2023-03-16T07:59:05.184Z,99071.86
2023-03-16T08:01:33.927Z,99075.86
2023-03-16T08:04:01.116Z,99072.34
2023-03-16T08:06:29.722Z,99076.86
2023-03-16T08:08:57.018Z,99074.17
2023-03-16T08:11:29.601Z,99070.80
2023-03-16T08:13:58.930Z,99069.58
2023-03-16T08:16:35.232Z,99077.77
2023-03-16T08:19:04.807Z,99081.28
2023-03-16T08:21:35.074Z,99082.95
2023-03-16T08:24:05.978Z,99083.33
2023-03-16T08:26:39.482Z,99073.96
2023-03-16T08:29:06.983Z,99075.73
2023-03-16T08:31:34.985Z,99074.45
2023-03-16T08:34:12.632Z,99074.83
2023-03-16T08:36:43.732Z,99078.83
2023-03-16T08:39:13.084Z,99083.58
2023-03-16T08:41:43.202Z,99089.56
2023-03-16T08:44:19.645Z,99090.27
2023-03-16T08:46:47.481Z,99092.67
2023-03-16T08:49:14.895Z,99092.91
2023-03-16T08:51:46.028Z,99100.51
2023-03-16T08:54:13.593Z,99106.82
2023-03-16T08:56:42.801Z,99112.12
2023-03-16T08:59:19.867Z,99116.48
2023-03-16T09:01:56.030Z,99120.22
2023-03-16T09:04:24.619Z,99120.73
2023-03-16T09:07:05.952Z,99118.89
2023-03-16T09:09:35.145Z,99116.85
2023-03-16T09:12:03.708Z,99118.53
2023-03-16T09:14:31.158Z,99119.08
2023-03-16T09:17:01.668Z,99120.13
2023-03-16T09:19:47.887Z,99116.94
2023-03-16T09:22:19.145Z,99118.59
2023-03-16T09:24:49.341Z,99123.98
2023-03-16T09:27:16.887Z,99126.06
2023-03-16T09:29:48.994Z,99126.95
2023-03-16T09:32:17.336Z,99130.73
2023-03-16T09:34:45.168Z,99132.39
2023-03-16T09:37:12.041Z,99134.60
2023-03-16T09:39:39.197Z,99133.73
2023-03-16T09:42:27.647Z,99136.02
2023-03-16T09:45:04.934Z,99132.30
2023-03-16T09:47:33.608Z,99137.87
2023-03-16T09:50:06.344Z,99141.03
2023-03-16T09:52:53.603Z,99140.69
2023-03-16T09:55:28.417Z,99140.46
2023-03-16T09:57:56.891Z,99142.13
2023-03-16T10:00:33.548Z,99135.28
2023-03-16T10:03:17.145Z,99140.75
2023-03-16T10:05:45.030Z,99136.06
2023-03-16T10:08:24.673Z,99136.23
2023-03-16T10:10:55.049Z,99137.20
2023-03-16T10:13:35.794Z,99132.67
2023-03-16T10:16:12.277Z,99134.15
2023-03-16T10:18:46.803Z,99133.66
2023-03-16T10:21:16.431Z,99136.13
2023-03-16T10:23:46.008Z,99140.55
2023-03-16T10:26:18.309Z,99147.19
2023-03-16T10:28:45.980Z,99153.23
2023-03-16T10:31:13.418Z,99155.48
2023-03-16T10:33:40.559Z,99156.98
2023-03-16T10:36:25.485Z,99157.64
2023-03-16T10:38:54.913Z,99157.61
2023-03-16T10:41:32.995Z,99164.81
2023-03-16T10:44:16.585Z,99162.83
2023-03-16T10:47:05.173Z,99166.20
2023-03-16T10:49:41.712Z,99161.40
2023-03-16T10:52:13.479Z,99165.52
2023-03-16T10:54:41.217Z,99167.34
2023-03-16T10:57:33.476Z,99163.27
2023-03-16T11:00:14.800Z,99158.58
2023-03-16T11:02:42.149Z,99157.05
2023-03-16T11:05:18.025Z,99159.46
2023-03-16T11:07:59.951Z,99161.10
2023-03-16T11:10:34.585Z,99163.41
2023-03-16T11:13:14.433Z,99164.40
2023-03-16T11:15:57.577Z,99161.73
2023-03-16T11:18:29.756Z,99156.92
2023-03-16T11:21:00.029Z,99159.77
2023-03-16T11:23:38.355Z,99161.52
2023-03-16T11:26:07.481Z,99169.19
2023-03-16T11:28:38.149Z,99171.14
2023-03-16T11:31:12.482Z,99173.64
2023-03-16T11:33:40.268Z,99177.73
2023-03-16T11:36:12.545Z,99173.50
2023-03-16T11:38:53.091Z,99177.44
2023-03-16T11:41:28.568Z,99177.44
2023-03-16T11:43:57.167Z,99188.58
2023-03-16T11:46:33.191Z,99191.02
2023-03-16T11:49:34.966Z,99195.62
2023-03-16T11:52:27.846Z,99199.27
2023-03-16T11:55:29.039Z,99200.89
2023-03-16T11:58:06.659Z,99206.46
2023-03-16T12:00:55.675Z,99208.73
2023-03-16T12:03:31.780Z,99214.06
2023-03-16T12:06:13.556Z,99217.86
2023-03-16T12:08:48.052Z,99221.61
2023-03-16T12:11:24.666Z,99225.44
2023-03-16T12:14:16.493Z,99224.48
2023-03-16T12:16:49.500Z,99224.18
2023-03-16T12:19:24.413Z,99221.73
2023-03-16T12:21:59.505Z,99226.19
2023-03-16T12:24:28.335Z,99232.55
2023-03-16T12:26:57.295Z,99238.81
2023-03-16T12:29:36.232Z,99243.67
2023-03-16T12:32:20.370Z,99243.61
2023-03-16T12:34:59.525Z,99239.77
2023-03-16T12:37:35.945Z,99234.92
2023-03-16T12:40:11.971Z,99235.77
2023-03-16T12:43:35.129Z,99234.80
2023-03-16T12:46:11.500Z,99238.65
2023-03-16T12:48:46.868Z,99243.21
2023-03-16T12:51:13.952Z,99245.09
2023-03-16T12:53:52.757Z,99245.57
2023-03-16T12:56:42.235Z,99247.19
2023-03-16T12:59:19.157Z,99249.09
2023-03-16T13:01:56.934Z,99255.22
2023-03-16T13:04:34.586Z,99262.46
2023-03-16T13:07:11.518Z,99262.73
2023-03-16T13:09:46.102Z,99266.73
2023-03-16T13:12:26.327Z,99269.35
2023-03-16T13:14:54.717Z,99264.59
2023-03-16T13:17:24.331Z,99263.29
2023-03-16T13:20:30.366Z,99274.65
2023-03-16T13:23:17.745Z,99275.65
2023-03-16T13:25:57.643Z,99278.70
2023-03-16T13:28:31.146Z,99277.39
2023-03-16T13:30:58.675Z,99277.27
2023-03-16T13:33:27.394Z,99275.17
2023-03-16T13:35:55.661Z,99280.85
2023-03-16T13:38:26.968Z,99285.15
2023-03-16T13:41:02.783Z,99281.06
2023-03-16T13:45:43.263Z,99289.25
2023-03-16T13:48:13.790Z,99287.96
2023-03-16T13:50:43.520Z,99289.61
2023-03-16T13:53:17.763Z,99285.69
2023-03-16T13:55:47.534Z,99280.77
2023-03-16T13:58:29.084Z,99279.02
2023-03-16T14:00:59.955Z,99279.72
2023-03-16T14:03:48.541Z,99279.55
2023-03-16T14:06:27.552Z,99290.62
2023-03-16T14:08:58.858Z,99292.79
2023-03-16T14:11:28.544Z,99291.66
2023-03-16T14:13:59.023Z,99291.59
2023-03-16T14:16:29.140Z,99293.71
2023-03-16T14:19:04.631Z,99298.77
2023-03-16T14:21:34.856Z,99304.92
2023-03-16T14:24:07.869Z,99316.42
2023-03-16T14:26:45.620Z,99323.59
2023-03-16T14:29:27.714Z,99329.34
2023-03-16T14:31:56.719Z,99340.77
2023-03-16T14:34:30.467Z,99342.17
2023-03-16T14:37:06.284Z,99343.80
2023-03-16T14:39:42.086Z,99343.36
2023-03-16T14:42:19.901Z,99345.93
2023-03-16T14:44:51.213Z,99345.91
2023-03-16T14:47:24.617Z,99349.95
2023-03-16T14:50:06.815Z,99360.71
2023-03-16T14:52:36.221Z,99367.24
2023-03-16T14:55:15.838Z,99370.08
2023-03-16T14:57:47.660Z,99373.58
2023-03-16T15:00:22.049Z,99377.11
2023-03-16T15:02:59.806Z,99378.41
2023-03-16T15:05:32.118Z,99378.31
2023-03-16T15:08:01.198Z,99377.07
2023-03-16T15:10:34.621Z,99374.98
2023-03-16T15:13:13.401Z,99375.07
2023-03-16T15:15:42.783Z,99380.63
2023-03-16T15:18:13.723Z,99383.19
2023-03-16T15:20:43.894Z,99387.87
2023-03-16T15:23:14.268Z,99390.82
2023-03-16T15:25:45.044Z,99395.67
2023-03-16T15:28:21.731Z,99394.45
2023-03-16T15:30:56.877Z,99405.96
2023-03-16T15:33:26.967Z,99415.25
2023-03-16T15:35:56.534Z,99421.12
2023-03-16T15:38:25.086Z,99425.67
2023-03-16T15:40:54.468Z,99424.13
2023-03-16T15:43:25.054Z,99431.45
2023-03-16T15:45:54.389Z,99437.34
2023-03-16T15:48:24.756Z,99451.46
2023-03-16T15:50:54.462Z,99451.04
2023-03-16T15:53:36.035Z,99459.92
2023-03-16T15:56:12.505Z,99467.86
2023-03-16T15:58:44.180Z,99482.70
2023-03-16T16:01:23.538Z,99486.77
2023-03-16T16:03:52.625Z,99488.38
2023-03-16T16:06:21.872Z,99491.23
2023-03-16T16:08:50.965Z,99492.35
2023-03-16T16:11:25.226Z,99493.30
2023-03-16T16:13:55.156Z,99500.37
2023-03-16T16:16:30.186Z,99505.38
2023-03-16T16:18:59.385Z,99502.92
2023-03-16T16:21:33.944Z,99510.64
2023-03-16T16:24:03.290Z,99516.36
2023-03-16T16:26:49.957Z,99522.41
2023-03-16T16:29:22.536Z,99525.52
2023-03-16T16:31:54.304Z,99529.82
2023-03-16T16:34:25.887Z,99533.68
2023-03-16T16:36:55.501Z,99534.06
2023-03-16T16:39:24.667Z,99537.83
2023-03-16T16:41:57.196Z,99543.28
2023-03-16T16:44:32.013Z,99546.23
2023-03-16T16:47:23.747Z,99552.45
2023-03-16T16:49:53.633Z,99555.00
2023-03-16T16:52:25.622Z,99564.11
2023-03-16T16:54:54.167Z,99571.75
2023-03-16T16:57:22.931Z,99575.07
2023-03-16T16:59:51.380Z,99573.22
2023-03-16T17:02:43.751Z,99578.35
2023-03-16T17:05:28.860Z,99582.64
2023-03-16T17:08:03.617Z,99583.40
2023-03-16T17:10:35.173Z,99586.52
2023-03-16T17:13:04.056Z,99584.52
2023-03-16T17:15:33.133Z,99580.02
2023-03-16T17:18:11.063Z,99583.49
2023-03-16T17:20:40.000Z,99593.05
2023-03-16T17:23:29.376Z,99588.25
2023-03-16T17:25:58.787Z,99591.67
2023-03-16T17:28:28.458Z,99592.04
2023-03-16T17:31:02.699Z,99595.92
2023-03-16T17:33:32.415Z,99597.11
2023-03-16T17:36:02.620Z,99599.10
2023-03-16T17:38:33.100Z,99600.12
2023-03-16T17:41:02.021Z,99605.47
2023-03-16T17:43:32.009Z,99606.38
2023-03-16T17:46:00.748Z,99607.14
2023-03-16T17:48:30.000Z,99614.34
2023-03-16T17:50:59.981Z,99617.81
2023-03-16T17:53:28.841Z,99625.36
2023-03-16T17:55:59.062Z,99619.84
2023-03-16T17:58:29.778Z,99621.79
2023-03-16T18:01:02.819Z,99624.02
2023-03-16T18:03:31.540Z,99623.46
2023-03-16T18:06:00.162Z,99625.39
2023-03-16T18:08:36.307Z,99620.73
2023-03-16T18:11:07.024Z,99619.46
2023-03-16T18:13:37.085Z,99624.48
2023-03-16T18:16:07.363Z,99627.50
2023-03-16T18:18:39.988Z,99627.83
2023-03-16T18:21:17.281Z,99627.64
2023-03-16T18:23:46.625Z,99627.12
2023-03-16T18:26:15.123Z,99630.83
2023-03-16T18:28:44.140Z,99635.70
2023-03-16T18:31:26.604Z,99639.09
2023-03-16T18:33:57.424Z,99645.21
2023-03-16T18:36:33.697Z,99647.73
2023-03-16T18:39:17.276Z,99647.66
2023-03-16T18:41:50.161Z,99646.23
2023-03-16T18:44:26.049Z,99651.10
2023-03-16T18:46:59.019Z,99651.66
2023-03-16T18:49:32.018Z,99651.86
2023-03-16T18:52:01.601Z,99652.98
2023-03-16T18:54:32.080Z,99656.80
2023-03-16T18:57:00.455Z,99660.52
2023-03-16T18:59:30.406Z,99662.23
2023-03-16T19:01:58.924Z,99663.41
2023-03-16T19:04:31.037Z,99663.18
2023-03-16T19:07:00.143Z,99668.33
2023-03-16T19:09:31.995Z,99670.10
2023-03-16T19:12:03.799Z,99672.74
2023-03-16T19:14:33.184Z,99673.33
2023-03-16T19:17:05.372Z,99675.51
2023-03-16T19:19:33.805Z,99672.80
2023-03-16T19:22:12.851Z,99675.73
2023-03-16T19:24:48.411Z,99677.57
2023-03-16T19:27:26.675Z,99681.88
2023-03-16T19:29:58.226Z,99683.23
2023-03-16T19:32:26.752Z,99685.52
2023-03-16T19:34:58.683Z,99680.30
2023-03-16T19:37:30.194Z,99681.86
2023-03-16T19:39:59.253Z,99683.86
2023-03-16T19:42:30.025Z,99685.16
2023-03-16T19:44:58.301Z,99685.03
2023-03-16T19:47:29.771Z,99687.09
2023-03-16T19:49:59.045Z,99695.97
2023-03-16T19:52:28.404Z,99697.05
2023-03-16T19:54:57.942Z,99695.95
2023-03-16T19:57:26.695Z,99698.76
2023-03-16T19:59:57.645Z,99701.75
2023-03-16T20:02:33.555Z,99707.44
2023-03-16T20:05:02.179Z,99709.02
2023-03-16T20:07:30.677Z,99704.98
2023-03-16T20:09:59.069Z,99702.73
2023-03-16T20:12:29.312Z,99701.36
2023-03-16T20:15:00.991Z,99700.76
2023-03-16T20:17:30.294Z,99703.83
2023-03-16T20:20:01.436Z,99709.08
2023-03-16T20:22:30.304Z,99704.77
2023-03-16T20:24:58.993Z,99707.04
2023-03-16T20:27:30.908Z,99703.80
2023-03-16T20:29:59.415Z,99706.94
2023-03-16T20:32:35.903Z,99707.99
2023-03-16T20:35:20.958Z,99705.13
2023-03-16T20:37:50.106Z,99707.10
2023-03-16T20:40:19.752Z,99709.88
2023-03-16T20:42:48.774Z,99716.31
2023-03-16T20:45:28.546Z,99717.94
2023-03-16T20:47:57.167Z,99719.80
2023-03-16T20:50:28.132Z,99721.05
2023-03-16T20:52:58.320Z,99714.58
2023-03-16T20:55:29.407Z,99711.66
2023-03-16T20:58:01.386Z,99714.87
2023-03-16T21:00:35.952Z,99716.84
2023-03-16T21:03:12.548Z,99715.88
2023-03-16T21:05:41.058Z,99720.36
2023-03-16T21:08:09.517Z,99722.94
2023-03-16T21:10:45.678Z,99726.30
2023-03-16T21:13:18.617Z,99724.66
2023-03-16T21:15:50.001Z,99726.61
2023-03-16T21:18:20.808Z,99726.73
2023-03-16T21:20:50.137Z,99723.55
2023-03-16T21:23:22.033Z,99725.88
2023-03-16T21:25:55.923Z,99725.93
2023-03-16T21:28:25.046Z,99725.92
2023-03-16T21:31:01.308Z,99731.20
2023-03-16T21:33:37.870Z,99731.98
2023-03-16T21:36:12.250Z,99735.70
2023-03-16T21:38:41.380Z,99733.69
2023-03-16T21:41:09.798Z,99736.65
2023-03-16T21:43:44.577Z,99744.20
2023-03-16T21:46:21.578Z,99747.30
2023-03-16T21:48:52.683Z,99747.33
2023-03-16T21:51:22.471Z,99748.38
2023-03-16T21:53:51.134Z,99750.52
2023-03-16T21:56:25.661Z,99756.63
2023-03-16T21:58:54.178Z,99759.03
2023-03-16T22:01:25.812Z,99763.94
2023-03-16T22:03:57.715Z,99769.25
2023-03-16T22:06:28.137Z,99768.35
2023-03-16T22:08:57.750Z,99773.00
2023-03-16T22:11:29.895Z,99773.11
2023-03-16T22:13:59.665Z,99778.23
2023-03-16T22:16:30.254Z,99780.13
2023-03-16T22:18:59.749Z,99783.81
2023-03-16T22:21:38.317Z,99788.71
2023-03-16T22:24:13.801Z,99788.01
2023-03-16T22:26:42.764Z,99787.63
2023-03-16T22:29:24.147Z,99789.41
2023-03-16T22:31:58.090Z,99791.25
2023-03-16T22:34:51.576Z,99794.97
2023-03-16T22:37:21.549Z,99798.77
2023-03-16T22:39:50.058Z,99795.90
2023-03-16T22:42:38.304Z,99794.27
2023-03-16T22:45:21.646Z,99795.01
2023-03-16T22:47:50.358Z,99798.39
2023-03-16T22:50:19.654Z,99802.77
2023-03-16T22:52:49.186Z,99803.31
2023-03-16T22:55:20.193Z,99801.42
2023-03-16T22:57:50.651Z,99794.87
2023-03-16T23:00:22.316Z,99797.54
2023-03-16T23:02:50.930Z,99804.08
2023-03-16T23:05:24.776Z,99800.19
2023-03-16T23:07:55.215Z,99803.68
2023-03-16T23:10:25.777Z,99804.81
2023-03-16T23:12:59.562Z,99806.10
2023-03-16T23:15:29.878Z,99807.83
2023-03-16T23:17:58.448Z,99806.34
2023-03-16T23:20:29.337Z,99809.50
2023-03-16T23:22:58.180Z,99811.17
2023-03-16T23:25:27.722Z,99806.43
2023-03-16T23:27:56.913Z,99810.70
2023-03-16T23:30:26.244Z,99806.83
2023-03-16T23:32:55.778Z,99811.16
2023-03-16T23:35:25.796Z,99815.09
2023-03-16T23:38:01.577Z,99815.11
2023-03-16T23:40:30.681Z,99809.02
2023-03-16T23:42:59.827Z,99810.94
2023-03-16T23:45:42.313Z,99810.87
2023-03-16T23:48:19.122Z,99816.66
2023-03-16T23:50:49.493Z,99812.28
2023-03-16T23:53:19.174Z,99809.46
2023-03-16T23:55:51.884Z,99812.23
2023-03-16T23:58:21.134Z,99814.15
